sensor_id;sensor_type;location;lat;lon;timestamp;temperature;humidity
975;DHT22;6115;49.296;10.602;2023-05-29T00:00:40;15.00;45.70
975;DHT22;6115;49.296;10.602;2023-05-29T00:05:41;14.90;46.20
975;DHT22;6115;49.296;10.602;2023-05-29T00:10:41;14.80;46.90
975;DHT22;6115;49.296;10.602;2023-05-29T00:15:42;14.70;46.90
975;DHT22;6115;49.296;10.602;2023-05-29T00:20:42;14.70;47.30
975;DHT22;6115;49.296;10.602;2023-05-29T00:25:43;14.60;47.40
975;DHT22;6115;49.296;10.602;2023-05-29T00:30:43;14.40;47.70
975;DHT22;6115;49.296;10.602;2023-05-29T00:35:50;14.40;47.90
975;DHT22;6115;49.296;10.602;2023-05-29T00:40:51;14.30;48.30
975;DHT22;6115;49.296;10.602;2023-05-29T00:45:51;14.30;48.60
975;DHT22;6115;49.296;10.602;2023-05-29T00:50:59;14.20;48.90
975;DHT22;6115;49.296;10.602;2023-05-29T00:56:00;14.20;48.80
975;DHT22;6115;49.296;10.602;2023-05-29T01:01:02;14.10;49.50
975;DHT22;6115;49.296;10.602;2023-05-29T01:06:03;14.00;49.50
975;DHT22;6115;49.296;10.602;2023-05-29T01:11:12;13.90;49.30
975;DHT22;6115;49.296;10.602;2023-05-29T01:16:28;13.80;49.80
975;DHT22;6115;49.296;10.602;2023-05-29T01:32:08;13.50;51.00
975;DHT22;6115;49.296;10.602;2023-05-29T01:37:09;13.40;51.10
975;DHT22;6115;49.296;10.602;2023-05-29T01:42:10;13.30;51.40
975;DHT22;6115;49.296;10.602;2023-05-29T01:47:11;13.30;51.50
975;DHT22;6115;49.296;10.602;2023-05-29T01:52:12;13.20;51.60
975;DHT22;6115;49.296;10.602;2023-05-29T01:57:13;13.10;51.60
975;DHT22;6115;49.296;10.602;2023-05-29T02:02:14;13.10;51.90
975;DHT22;6115;49.296;10.602;2023-05-29T02:07:14;13.10;52.00
975;DHT22;6115;49.296;10.602;2023-05-29T02:12:15;12.90;52.10
975;DHT22;6115;49.296;10.602;2023-05-29T02:17:16;12.90;52.60
975;DHT22;6115;49.296;10.602;2023-05-29T02:22:17;12.90;52.80
975;DHT22;6115;49.296;10.602;2023-05-29T02:27:18;12.90;53.00
975;DHT22;6115;49.296;10.602;2023-05-29T02:32:19;12.80;52.90
975;DHT22;6115;49.296;10.602;2023-05-29T02:37:19;12.80;52.90
975;DHT22;6115;49.296;10.602;2023-05-29T02:42:21;12.60;52.70
975;DHT22;6115;49.296;10.602;2023-05-29T02:47:24;12.60;52.70
975;DHT22;6115;49.296;10.602;2023-05-29T02:52:24;12.50;52.60
975;DHT22;6115;49.296;10.602;2023-05-29T02:57:25;12.50;53.40
975;DHT22;6115;49.296;10.602;2023-05-29T03:02:26;12.40;53.50
975;DHT22;6115;49.296;10.602;2023-05-29T03:07:26;12.40;53.50
975;DHT22;6115;49.296;10.602;2023-05-29T03:12:27;12.30;53.60
975;DHT22;6115;49.296;10.602;2023-05-29T03:17:28;12.30;54.00
975;DHT22;6115;49.296;10.602;2023-05-29T03:22:28;12.20;54.10
975;DHT22;6115;49.296;10.602;2023-05-29T03:27:29;12.20;53.90
975;DHT22;6115;49.296;10.602;2023-05-29T03:32:30;12.10;53.80
975;DHT22;6115;49.296;10.602;2023-05-29T03:37:32;12.10;54.40
975;DHT22;6115;49.296;10.602;2023-05-29T03:42:33;12.00;54.70
975;DHT22;6115;49.296;10.602;2023-05-29T03:47:34;11.90;54.90
975;DHT22;6115;49.296;10.602;2023-05-29T03:52:34;11.90;55.40
975;DHT22;6115;49.296;10.602;2023-05-29T03:57:35;11.90;55.50
975;DHT22;6115;49.296;10.602;2023-05-29T04:02:37;11.80;55.40
975;DHT22;6115;49.296;10.602;2023-05-29T04:07:38;11.80;55.60
975;DHT22;6115;49.296;10.602;2023-05-29T04:12:38;11.70;55.50
975;DHT22;6115;49.296;10.602;2023-05-29T04:17:39;11.70;56.00
975;DHT22;6115;49.296;10.602;2023-05-29T04:22:39;11.80;56.50
975;DHT22;6115;49.296;10.602;2023-05-29T04:27:40;11.90;56.50
975;DHT22;6115;49.296;10.602;2023-05-29T04:32:41;11.90;56.50
975;DHT22;6115;49.296;10.602;2023-05-29T04:37:41;12.00;56.60
975;DHT22;6115;49.296;10.602;2023-05-29T04:42:44;12.10;56.30
975;DHT22;6115;49.296;10.602;2023-05-29T04:47:47;12.10;56.10
975;DHT22;6115;49.296;10.602;2023-05-29T04:52:48;12.20;56.80
975;DHT22;6115;49.296;10.602;2023-05-29T04:57:49;12.30;56.40
975;DHT22;6115;49.296;10.602;2023-05-29T05:02:50;12.40;56.90
975;DHT22;6115;49.296;10.602;2023-05-29T05:07:51;12.50;57.10
975;DHT22;6115;49.296;10.602;2023-05-29T05:12:51;12.60;57.10
975;DHT22;6115;49.296;10.602;2023-05-29T05:17:52;12.70;57.20
975;DHT22;6115;49.296;10.602;2023-05-29T05:22:52;12.70;57.60
975;DHT22;6115;49.296;10.602;2023-05-29T05:27:53;12.80;56.90
975;DHT22;6115;49.296;10.602;2023-05-29T05:32:53;13.10;56.40
975;DHT22;6115;49.296;10.602;2023-05-29T05:37:55;13.20;55.30
975;DHT22;6115;49.296;10.602;2023-05-29T05:42:58;13.50;54.70
975;DHT22;6115;49.296;10.602;2023-05-29T05:47:58;13.70;53.70
975;DHT22;6115;49.296;10.602;2023-05-29T05:52:59;13.90;53.80
975;DHT22;6115;49.296;10.602;2023-05-29T05:58:00;14.10;53.10
975;DHT22;6115;49.296;10.602;2023-05-29T06:03:00;14.30;52.30
975;DHT22;6115;49.296;10.602;2023-05-29T06:08:03;14.60;50.70
975;DHT22;6115;49.296;10.602;2023-05-29T06:13:03;14.80;51.20
975;DHT22;6115;49.296;10.602;2023-05-29T06:18:04;14.90;51.20
975;DHT22;6115;49.296;10.602;2023-05-29T06:23:05;15.20;50.70
975;DHT22;6115;49.296;10.602;2023-05-29T06:28:06;15.40;49.30
975;DHT22;6115;49.296;10.602;2023-05-29T06:33:06;15.50;48.10
975;DHT22;6115;49.296;10.602;2023-05-29T06:38:07;15.70;47.50
975;DHT22;6115;49.296;10.602;2023-05-29T06:43:07;15.90;47.90
975;DHT22;6115;49.296;10.602;2023-05-29T06:48:09;16.10;47.70
975;DHT22;6115;49.296;10.602;2023-05-29T06:53:10;16.30;47.20
975;DHT22;6115;49.296;10.602;2023-05-29T06:58:11;16.50;47.10
975;DHT22;6115;49.296;10.602;2023-05-29T07:03:12;16.70;46.60
975;DHT22;6115;49.296;10.602;2023-05-29T07:08:13;17.00;45.00
975;DHT22;6115;49.296;10.602;2023-05-29T07:13:15;17.10;46.00
975;DHT22;6115;49.296;10.602;2023-05-29T07:18:16;17.20;46.10
975;DHT22;6115;49.296;10.602;2023-05-29T07:23:16;17.40;45.90
975;DHT22;6115;49.296;10.602;2023-05-29T07:28:17;17.70;44.80
975;DHT22;6115;49.296;10.602;2023-05-29T07:33:17;17.90;43.60
975;DHT22;6115;49.296;10.602;2023-05-29T07:38:18;18.20;43.00
975;DHT22;6115;49.296;10.602;2023-05-29T07:43:18;18.30;43.50
975;DHT22;6115;49.296;10.602;2023-05-29T07:48:19;18.50;42.80
975;DHT22;6115;49.296;10.602;2023-05-29T07:53:20;18.80;41.80
975;DHT22;6115;49.296;10.602;2023-05-29T07:58:20;19.00;42.20
975;DHT22;6115;49.296;10.602;2023-05-29T08:03:21;19.10;39.90
975;DHT22;6115;49.296;10.602;2023-05-29T08:08:22;19.40;40.20
975;DHT22;6115;49.296;10.602;2023-05-29T08:13:22;19.60;40.40
975;DHT22;6115;49.296;10.602;2023-05-29T08:18:26;19.80;39.30
975;DHT22;6115;49.296;10.602;2023-05-29T08:23:27;20.00;38.50
975;DHT22;6115;49.296;10.602;2023-05-29T08:28:27;20.20;36.90
975;DHT22;6115;49.296;10.602;2023-05-29T08:33:28;20.40;35.40
975;DHT22;6115;49.296;10.602;2023-05-29T08:38:31;20.70;35.00
975;DHT22;6115;49.296;10.602;2023-05-29T08:43:32;20.90;32.70
975;DHT22;6115;49.296;10.602;2023-05-29T08:48:32;21.00;33.50
975;DHT22;6115;49.296;10.602;2023-05-29T08:53:37;21.20;32.10
975;DHT22;6115;49.296;10.602;2023-05-29T08:58:38;21.30;33.80
975;DHT22;6115;49.296;10.602;2023-05-29T09:03:39;21.70;33.50
975;DHT22;6115;49.296;10.602;2023-05-29T09:08:39;22.00;32.70
975;DHT22;6115;49.296;10.602;2023-05-29T09:13:40;22.50;32.00
975;DHT22;6115;49.296;10.602;2023-05-29T09:18:40;22.50;30.00
975;DHT22;6115;49.296;10.602;2023-05-29T09:23:46;22.60;31.00
975;DHT22;6115;49.296;10.602;2023-05-29T09:28:46;22.70;29.10
975;DHT22;6115;49.296;10.602;2023-05-29T09:33:48;22.80;30.00
975;DHT22;6115;49.296;10.602;2023-05-29T09:38:49;23.10;29.70
975;DHT22;6115;49.296;10.602;2023-05-29T09:43:51;23.30;29.70
975;DHT22;6115;49.296;10.602;2023-05-29T09:48:53;23.40;30.80
975;DHT22;6115;49.296;10.602;2023-05-29T09:53:54;23.50;30.70
975;DHT22;6115;49.296;10.602;2023-05-29T09:58:57;23.50;29.40
975;DHT22;6115;49.296;10.602;2023-05-29T10:03:58;23.70;31.70
975;DHT22;6115;49.296;10.602;2023-05-29T10:08:59;23.80;30.70
975;DHT22;6115;49.296;10.602;2023-05-29T10:14:03;24.10;30.60
975;DHT22;6115;49.296;10.602;2023-05-29T10:19:05;24.40;30.00
975;DHT22;6115;49.296;10.602;2023-05-29T10:24:08;24.40;29.40
975;DHT22;6115;49.296;10.602;2023-05-29T10:29:31;24.50;31.20
975;DHT22;6115;49.296;10.602;2023-05-29T10:34:42;24.90;29.50
975;DHT22;6115;49.296;10.602;2023-05-29T10:39:44;25.20;28.20
975;DHT22;6115;49.296;10.602;2023-05-29T10:44:45;25.50;28.00
975;DHT22;6115;49.296;10.602;2023-05-29T10:49:51;25.50;28.70
975;DHT22;6115;49.296;10.602;2023-05-29T10:54:53;25.50;26.80
975;DHT22;6115;49.296;10.602;2023-05-29T11:00:16;25.40;29.30
975;DHT22;6115;49.296;10.602;2023-05-29T11:05:22;25.60;27.10
975;DHT22;6115;49.296;10.602;2023-05-29T11:10:44;25.70;26.30
975;DHT22;6115;49.296;10.602;2023-05-29T11:21:32;25.80;26.00
975;DHT22;6115;49.296;10.602;2023-05-29T11:26:36;26.10;24.80
975;DHT22;6115;49.296;10.602;2023-05-29T11:31:37;26.20;24.90
975;DHT22;6115;49.296;10.602;2023-05-29T11:36:39;26.30;27.20
975;DHT22;6115;49.296;10.602;2023-05-29T11:41:41;26.20;25.80
975;DHT22;6115;49.296;10.602;2023-05-29T11:46:41;26.30;27.10
975;DHT22;6115;49.296;10.602;2023-05-29T11:51:42;26.50;25.40
975;DHT22;6115;49.296;10.602;2023-05-29T11:56:43;26.40;27.10
975;DHT22;6115;49.296;10.602;2023-05-29T12:01:44;26.40;25.20
975;DHT22;6115;49.296;10.602;2023-05-29T12:06:45;26.60;24.40
975;DHT22;6115;49.296;10.602;2023-05-29T12:11:45;26.50;25.20
975;DHT22;6115;49.296;10.602;2023-05-29T12:16:46;26.30;26.90
975;DHT22;6115;49.296;10.602;2023-05-29T12:21:47;26.40;27.20
975;DHT22;6115;49.296;10.602;2023-05-29T12:26:47;26.40;26.40
975;DHT22;6115;49.296;10.602;2023-05-29T12:31:57;26.80;26.00
975;DHT22;6115;49.296;10.602;2023-05-29T12:37:07;26.80;25.60
975;DHT22;6115;49.296;10.602;2023-05-29T12:42:16;27.00;24.70
975;DHT22;6115;49.296;10.602;2023-05-29T12:47:23;26.80;25.60
975;DHT22;6115;49.296;10.602;2023-05-29T12:52:24;26.80;27.40
975;DHT22;6115;49.296;10.602;2023-05-29T12:57:25;27.10;24.30
975;DHT22;6115;49.296;10.602;2023-05-29T13:02:25;27.30;25.30
975;DHT22;6115;49.296;10.602;2023-05-29T13:07:26;27.20;25.20
975;DHT22;6115;49.296;10.602;2023-05-29T13:12:28;27.30;24.80
975;DHT22;6115;49.296;10.602;2023-05-29T13:17:28;27.50;23.90
975;DHT22;6115;49.296;10.602;2023-05-29T13:22:29;27.70;24.00
975;DHT22;6115;49.296;10.602;2023-05-29T13:27:30;28.00;24.30
975;DHT22;6115;49.296;10.602;2023-05-29T13:32:31;27.90;24.00
975;DHT22;6115;49.296;10.602;2023-05-29T13:37:32;28.00;23.70
975;DHT22;6115;49.296;10.602;2023-05-29T13:42:32;28.10;25.00
975;DHT22;6115;49.296;10.602;2023-05-29T13:47:34;28.20;22.80
975;DHT22;6115;49.296;10.602;2023-05-29T13:52:35;28.30;22.00
975;DHT22;6115;49.296;10.602;2023-05-29T13:57:36;28.50;22.10
975;DHT22;6115;49.296;10.602;2023-05-29T14:02:40;28.80;22.90
975;DHT22;6115;49.296;10.602;2023-05-29T14:07:40;28.90;21.90
975;DHT22;6115;49.296;10.602;2023-05-29T14:12:41;28.70;21.60
975;DHT22;6115;49.296;10.602;2023-05-29T14:17:41;28.50;20.80
975;DHT22;6115;49.296;10.602;2023-05-29T14:22:43;28.50;22.60
975;DHT22;6115;49.296;10.602;2023-05-29T14:27:44;28.50;22.30
975;DHT22;6115;49.296;10.602;2023-05-29T14:32:45;28.60;22.40
975;DHT22;6115;49.296;10.602;2023-05-29T14:37:45;28.80;22.70
975;DHT22;6115;49.296;10.602;2023-05-29T14:42:46;29.00;21.80
975;DHT22;6115;49.296;10.602;2023-05-29T14:47:46;29.30;21.30
975;DHT22;6115;49.296;10.602;2023-05-29T14:52:47;29.40;22.30
975;DHT22;6115;49.296;10.602;2023-05-29T14:57:50;29.40;20.80
975;DHT22;6115;49.296;10.602;2023-05-29T15:02:50;29.40;20.80
975;DHT22;6115;49.296;10.602;2023-05-29T15:07:51;29.60;20.90
975;DHT22;6115;49.296;10.602;2023-05-29T15:12:52;29.80;21.60
975;DHT22;6115;49.296;10.602;2023-05-29T15:17:57;30.00;20.60
975;DHT22;6115;49.296;10.602;2023-05-29T15:22:57;30.20;21.20
975;DHT22;6115;49.296;10.602;2023-05-29T15:27:58;30.20;21.20
975;DHT22;6115;49.296;10.602;2023-05-29T15:32:59;30.10;21.70
975;DHT22;6115;49.296;10.602;2023-05-29T15:38:00;30.20;21.20
975;DHT22;6115;49.296;10.602;2023-05-29T15:43:00;30.20;20.90
975;DHT22;6115;49.296;10.602;2023-05-29T15:48:01;29.60;20.90
975;DHT22;6115;49.296;10.602;2023-05-29T15:53:02;29.30;21.00
975;DHT22;6115;49.296;10.602;2023-05-29T15:58:02;29.30;21.60
975;DHT22;6115;49.296;10.602;2023-05-29T16:03:04;29.00;22.20
975;DHT22;6115;49.296;10.602;2023-05-29T16:08:05;28.60;22.10
975;DHT22;6115;49.296;10.602;2023-05-29T16:13:06;28.10;22.40
975;DHT22;6115;49.296;10.602;2023-05-29T16:18:07;28.20;23.00
975;DHT22;6115;49.296;10.602;2023-05-29T16:23:07;28.10;22.40
975;DHT22;6115;49.296;10.602;2023-05-29T16:28:08;27.60;22.50
975;DHT22;6115;49.296;10.602;2023-05-29T16:33:09;27.40;23.10
975;DHT22;6115;49.296;10.602;2023-05-29T16:38:09;27.30;23.20
975;DHT22;6115;49.296;10.602;2023-05-29T16:43:10;27.20;23.10
975;DHT22;6115;49.296;10.602;2023-05-29T16:48:10;27.00;24.20
975;DHT22;6115;49.296;10.602;2023-05-29T16:53:20;26.90;23.30
975;DHT22;6115;49.296;10.602;2023-05-29T16:58:23;26.70;23.50
975;DHT22;6115;49.296;10.602;2023-05-29T17:03:23;26.40;24.90
975;DHT22;6115;49.296;10.602;2023-05-29T17:08:24;26.20;23.50
975;DHT22;6115;49.296;10.602;2023-05-29T17:13:24;26.10;24.20
975;DHT22;6115;49.296;10.602;2023-05-29T17:18:26;25.70;24.90
975;DHT22;6115;49.296;10.602;2023-05-29T17:23:27;25.60;24.90
975;DHT22;6115;49.296;10.602;2023-05-29T17:28:27;25.30;25.50
975;DHT22;6115;49.296;10.602;2023-05-29T17:33:28;25.20;26.60
975;DHT22;6115;49.296;10.602;2023-05-29T17:38:28;25.10;25.60
975;DHT22;6115;49.296;10.602;2023-05-29T17:43:29;25.00;25.70
975;DHT22;6115;49.296;10.602;2023-05-29T17:48:30;24.80;25.80
975;DHT22;6115;49.296;10.602;2023-05-29T17:53:32;24.60;26.20
975;DHT22;6115;49.296;10.602;2023-05-29T17:58:32;24.60;26.40
975;DHT22;6115;49.296;10.602;2023-05-29T18:03:33;24.40;27.10
975;DHT22;6115;49.296;10.602;2023-05-29T18:08:35;24.10;27.90
975;DHT22;6115;49.296;10.602;2023-05-29T18:13:38;24.00;26.90
975;DHT22;6115;49.296;10.602;2023-05-29T18:18:39;23.80;27.80
975;DHT22;6115;49.296;10.602;2023-05-29T18:23:40;23.50;28.40
975;DHT22;6115;49.296;10.602;2023-05-29T18:28:44;23.30;28.00
975;DHT22;6115;49.296;10.602;2023-05-29T18:33:48;23.10;28.50
975;DHT22;6115;49.296;10.602;2023-05-29T18:38:52;23.00;28.80
975;DHT22;6115;49.296;10.602;2023-05-29T18:43:54;22.80;28.70
975;DHT22;6115;49.296;10.602;2023-05-29T18:48:56;22.60;29.60
975;DHT22;6115;49.296;10.602;2023-05-29T18:53:58;22.40;29.60
975;DHT22;6115;49.296;10.602;2023-05-29T18:58:59;22.30;29.80
975;DHT22;6115;49.296;10.602;2023-05-29T19:04:01;22.10;30.00
975;DHT22;6115;49.296;10.602;2023-05-29T19:09:02;21.90;30.20
975;DHT22;6115;49.296;10.602;2023-05-29T19:14:04;21.80;30.70
975;DHT22;6115;49.296;10.602;2023-05-29T19:19:06;21.60;31.60
975;DHT22;6115;49.296;10.602;2023-05-29T19:24:08;21.50;31.10
975;DHT22;6115;49.296;10.602;2023-05-29T19:29:08;21.40;31.40
975;DHT22;6115;49.296;10.602;2023-05-29T19:34:09;21.20;31.60
975;DHT22;6115;49.296;10.602;2023-05-29T19:39:10;21.10;32.00
975;DHT22;6115;49.296;10.602;2023-05-29T19:44:11;21.00;31.90
975;DHT22;6115;49.296;10.602;2023-05-29T19:49:12;20.80;32.30
975;DHT22;6115;49.296;10.602;2023-05-29T19:54:14;20.70;32.90
975;DHT22;6115;49.296;10.602;2023-05-29T19:59:15;20.60;33.80
975;DHT22;6115;49.296;10.602;2023-05-29T20:04:15;20.40;33.70
975;DHT22;6115;49.296;10.602;2023-05-29T20:09:16;20.30;34.60
975;DHT22;6115;49.296;10.602;2023-05-29T20:14:16;20.20;34.70
975;DHT22;6115;49.296;10.602;2023-05-29T20:19:17;20.00;35.30
975;DHT22;6115;49.296;10.602;2023-05-29T20:24:17;19.70;35.20
975;DHT22;6115;49.296;10.602;2023-05-29T20:29:18;19.70;35.70
975;DHT22;6115;49.296;10.602;2023-05-29T20:34:19;19.70;35.40
975;DHT22;6115;49.296;10.602;2023-05-29T20:39:20;19.60;35.60
975;DHT22;6115;49.296;10.602;2023-05-29T20:44:22;19.50;35.80
975;DHT22;6115;49.296;10.602;2023-05-29T20:49:28;19.50;36.10
975;DHT22;6115;49.296;10.602;2023-05-29T20:54:29;19.40;36.50
975;DHT22;6115;49.296;10.602;2023-05-29T20:59:30;19.10;36.90
975;DHT22;6115;49.296;10.602;2023-05-29T21:04:31;19.00;37.30
975;DHT22;6115;49.296;10.602;2023-05-29T21:09:32;18.90;37.60
975;DHT22;6115;49.296;10.602;2023-05-29T21:14:33;18.90;37.60
975;DHT22;6115;49.296;10.602;2023-05-29T21:19:34;18.80;37.80
975;DHT22;6115;49.296;10.602;2023-05-29T21:24:35;18.70;38.70
975;DHT22;6115;49.296;10.602;2023-05-29T21:29:36;18.50;38.50
975;DHT22;6115;49.296;10.602;2023-05-29T21:34:37;18.50;38.50
975;DHT22;6115;49.296;10.602;2023-05-29T21:39:37;18.40;39.30
975;DHT22;6115;49.296;10.602;2023-05-29T21:44:39;18.20;39.10
975;DHT22;6115;49.296;10.602;2023-05-29T21:49:40;18.10;39.10
975;DHT22;6115;49.296;10.602;2023-05-29T21:54:40;18.00;39.80
975;DHT22;6115;49.296;10.602;2023-05-29T21:59:41;17.80;40.40
975;DHT22;6115;49.296;10.602;2023-05-29T22:04:42;17.70;40.50
975;DHT22;6115;49.296;10.602;2023-05-29T22:09:42;17.70;40.60
975;DHT22;6115;49.296;10.602;2023-05-29T22:14:43;17.60;40.60
975;DHT22;6115;49.296;10.602;2023-05-29T22:19:43;17.60;40.90
975;DHT22;6115;49.296;10.602;2023-05-29T22:24:45;17.60;41.30
975;DHT22;6115;49.296;10.602;2023-05-29T22:29:48;17.40;41.70
975;DHT22;6115;49.296;10.602;2023-05-29T22:34:49;17.30;42.10
975;DHT22;6115;49.296;10.602;2023-05-29T22:39:50;17.20;41.90
975;DHT22;6115;49.296;10.602;2023-05-29T22:44:50;17.10;42.60
975;DHT22;6115;49.296;10.602;2023-05-29T22:49:51;17.00;42.80
975;DHT22;6115;49.296;10.602;2023-05-29T22:54:52;16.90;43.00
975;DHT22;6115;49.296;10.602;2023-05-29T22:59:53;16.80;43.20
975;DHT22;6115;49.296;10.602;2023-05-29T23:04:54;16.80;43.60
975;DHT22;6115;49.296;10.602;2023-05-29T23:09:55;16.70;43.90
975;DHT22;6115;49.296;10.602;2023-05-29T23:14:56;16.60;43.90
975;DHT22;6115;49.296;10.602;2023-05-29T23:19:56;16.70;44.20
975;DHT22;6115;49.296;10.602;2023-05-29T23:24:58;16.70;44.20
975;DHT22;6115;49.296;10.602;2023-05-29T23:29:58;16.60;44.30
975;DHT22;6115;49.296;10.602;2023-05-29T23:34:59;16.60;44.50
975;DHT22;6115;49.296;10.602;2023-05-29T23:39:59;16.50;44.80
975;DHT22;6115;49.296;10.602;2023-05-29T23:45:00;16.40;45.10
975;DHT22;6115;49.296;10.602;2023-05-29T23:50:01;16.30;45.40
975;DHT22;6115;49.296;10.602;2023-05-29T23:55:02;16.20;45.40
